createdAt,value
2018-08-17T07:55:27.800Z,72.11
2018-08-17T07:56:27.813Z,72.17
2018-08-17T07:58:20.900Z,72.50
2018-08-17T07:59:20.862Z,72.50
2018-08-17T08:01:14.187Z,72.30
2018-08-17T08:02:14.158Z,72.36
2018-08-17T08:04:07.014Z,72.95
2018-08-17T08:05:06.957Z,72.85
2018-08-17T08:07:00.012Z,73.59
2018-08-17T08:07:59.998Z,73.72
2018-08-17T08:09:52.832Z,73.33
2018-08-17T08:10:52.806Z,72.66
2018-08-17T08:12:45.840Z,72.79
2018-08-17T08:13:45.846Z,71.72
2018-08-17T08:15:39.015Z,70.98
2018-08-17T08:16:38.906Z,70.21
2018-08-17T08:18:32.235Z,69.02
2018-08-17T08:19:32.216Z,68.54
2018-08-17T08:21:25.082Z,68.18
2018-08-17T08:22:25.023Z,68.24
2018-08-17T08:24:17.866Z,67.99
2018-08-17T08:25:18.456Z,67.50
2018-08-17T08:26:17.822Z,67.02
2018-08-17T08:27:17.806Z,66.66
2018-08-17T08:28:17.794Z,65.69
2018-08-17T08:29:17.765Z,65.79
2018-08-17T08:30:17.754Z,65.50
2018-08-17T08:31:17.735Z,65.69
2018-08-17T08:32:17.725Z,64.92
2018-08-17T08:33:17.701Z,65.66
2018-08-17T08:34:17.692Z,66.34
2018-08-17T08:35:17.666Z,65.37
2018-08-17T08:36:17.651Z,66.92
2018-08-17T08:37:17.698Z,66.82
2018-08-17T08:38:17.625Z,66.99
2018-08-17T08:39:17.604Z,67.63
2018-08-17T08:40:17.586Z,68.54
2018-08-17T08:41:17.580Z,68.05
2018-08-17T08:42:17.567Z,67.57
2018-08-17T08:43:17.540Z,67.69
2018-08-17T08:44:17.519Z,66.14
2018-08-17T08:45:17.505Z,66.92
2018-08-17T08:46:17.486Z,66.34
2018-08-17T08:47:17.487Z,66.72
2018-08-17T08:48:17.457Z,68.34
2018-08-17T08:49:17.453Z,68.21
2018-08-17T08:50:17.425Z,69.47
2018-08-17T08:51:17.416Z,69.53
2018-08-17T08:52:17.391Z,69.85
2018-08-17T08:53:17.372Z,69.15
2018-08-17T08:54:17.361Z,69.05
2018-08-17T08:55:17.341Z,68.85
2018-08-17T08:56:17.323Z,68.85
2018-08-17T08:57:17.306Z,68.85
2018-08-17T08:58:17.291Z,68.47
2018-08-17T08:59:17.279Z,68.37
2018-08-17T09:00:17.267Z,68.95
2018-08-17T09:01:17.238Z,67.98
2018-08-17T09:02:17.223Z,68.37
2018-08-17T09:03:17.203Z,68.50
2018-08-17T09:04:17.198Z,67.14
2018-08-17T09:05:17.171Z,67.34
2018-08-17T09:06:17.159Z,66.79
2018-08-17T09:07:17.133Z,66.79
2018-08-17T09:08:17.211Z,66.20
2018-08-17T09:09:17.100Z,65.85
2018-08-17T09:10:17.089Z,65.27
2018-08-17T09:11:17.078Z,66.53
2018-08-17T09:12:17.054Z,65.37
2018-08-17T09:13:17.030Z,65.27
2018-08-17T09:14:17.016Z,65.37
2018-08-17T09:15:17.001Z,65.08
2018-08-17T09:16:16.980Z,65.08
2018-08-17T09:17:16.965Z,64.75
2018-08-17T09:18:16.947Z,65.56
2018-08-17T09:19:16.936Z,64.50
2018-08-17T09:20:16.965Z,64.59
2018-08-17T09:21:16.907Z,63.82
2018-08-17T09:22:16.880Z,62.85
2018-08-17T09:23:16.863Z,62.85
2018-08-17T09:24:16.841Z,62.16
2018-08-17T09:25:16.838Z,62.95
2018-08-17T09:26:16.809Z,62.55
2018-08-17T09:27:16.793Z,63.04
2018-08-17T09:29:16.825Z,62.46
2018-08-17T09:30:16.815Z,63.33
2018-08-17T09:31:16.730Z,63.13
2018-08-17T09:32:16.726Z,62.39
2018-08-17T09:33:16.696Z,61.55
2018-08-17T09:34:16.677Z,60.38
2018-08-17T09:35:16.661Z,59.64
2018-08-17T09:36:16.644Z,60.48
2018-08-17T09:37:16.624Z,60.22
2018-08-17T09:38:16.615Z,60.02
2018-08-17T09:39:16.595Z,60.58
2018-08-17T09:40:16.578Z,60.22
2018-08-17T09:41:16.556Z,61.91
2018-08-17T09:42:16.546Z,61.94
2018-08-17T09:43:16.531Z,62.32
2018-08-17T09:44:16.515Z,61.45
2018-08-17T09:45:16.502Z,62.10
2018-08-17T09:46:16.480Z,62.62
2018-08-17T09:47:16.465Z,62.52
2018-08-17T09:48:16.448Z,61.55
2018-08-17T09:49:16.434Z,61.35
2018-08-17T09:50:16.418Z,62.42
2018-08-17T09:51:16.433Z,62.71
2018-08-17T09:52:16.387Z,61.45
2018-08-17T09:53:16.370Z,61.84
2018-08-17T09:54:16.356Z,61.35
2018-08-17T09:55:16.339Z,61.35
2018-08-17T09:56:16.323Z,61.65
2018-08-17T09:57:16.308Z,62.98
2018-08-17T09:58:16.289Z,63.07
2018-08-17T09:59:16.273Z,62.78
2018-08-17T10:00:16.261Z,62.78
2018-08-17T10:01:16.239Z,62.98
2018-08-17T10:02:16.232Z,63.75
2018-08-17T10:03:16.208Z,64.78
2018-08-17T10:04:16.264Z,65.17
2018-08-17T10:05:16.176Z,66.34
2018-08-17T10:06:16.158Z,66.24
2018-08-17T10:07:16.147Z,66.30
2018-08-17T10:08:16.127Z,66.69
2018-08-17T10:09:16.143Z,66.60
2018-08-17T10:10:16.093Z,66.50
2018-08-17T10:11:16.079Z,66.89
2018-08-17T10:12:16.056Z,67.08
2018-08-17T10:13:16.058Z,66.79
2018-08-17T10:14:16.027Z,67.08
2018-08-17T10:15:16.010Z,66.79
2018-08-17T10:16:15.987Z,66.14
2018-08-17T10:17:15.986Z,66.24
2018-08-17T10:18:15.959Z,66.53
2018-08-17T10:19:15.942Z,66.24
2018-08-17T10:20:15.933Z,66.56
2018-08-17T10:21:16.127Z,65.37
2018-08-17T10:22:15.893Z,65.85
2018-08-17T10:23:15.878Z,65.56
2018-08-17T10:24:15.858Z,65.85
2018-08-17T10:25:15.854Z,65.30
2018-08-17T10:26:15.824Z,65.11
2018-08-17T10:27:15.911Z,65.20
2018-08-17T10:28:15.793Z,65.59
2018-08-17T10:29:15.771Z,64.75
2018-08-17T10:30:15.759Z,64.65
2018-08-17T10:31:15.742Z,64.75
2018-08-17T10:32:15.729Z,63.59
2018-08-17T10:33:15.702Z,62.94
2018-08-17T10:34:15.693Z,64.14
2018-08-17T10:35:15.674Z,64.07
2018-08-17T10:36:15.656Z,62.74
2018-08-17T10:37:15.645Z,61.97
2018-08-17T10:38:15.623Z,63.01
2018-08-17T10:39:15.610Z,62.91
2018-08-17T10:40:15.594Z,63.68
2018-08-17T10:41:15.577Z,63.32
2018-08-17T10:42:15.562Z,62.45
2018-08-17T10:43:15.547Z,62.26
2018-08-17T10:44:15.527Z,62.55
2018-08-17T10:45:15.519Z,62.74
2018-08-17T10:46:15.503Z,63.42
2018-08-17T10:47:15.484Z,63.29
2018-08-17T10:48:15.468Z,63.68
2018-08-17T10:49:15.514Z,63.68
2018-08-17T10:50:15.445Z,63.78
2018-08-17T10:51:15.421Z,63.04
2018-08-17T10:52:15.412Z,62.19
2018-08-17T10:53:15.389Z,63.26
2018-08-17T10:54:15.375Z,63.65
2018-08-17T10:55:15.366Z,63.95
2018-08-17T10:56:15.347Z,64.20
2018-08-17T10:57:15.332Z,64.33
2018-08-17T10:58:15.318Z,63.85
2018-08-17T10:59:15.297Z,64.04
2018-08-17T11:00:15.277Z,63.65
2018-08-17T11:01:15.271Z,64.23
2018-08-17T11:02:15.253Z,64.33
2018-08-17T11:03:15.235Z,64.33
2018-08-17T11:04:15.220Z,64.78
2018-08-17T11:05:15.205Z,65.40
2018-08-17T11:06:15.187Z,64.92
2018-08-17T11:07:15.170Z,65.11
2018-08-17T11:08:15.155Z,65.11
2018-08-17T11:09:15.135Z,63.88
2018-08-17T11:10:15.125Z,63.59
2018-08-17T11:11:15.139Z,62.84
2018-08-17T11:12:15.095Z,64.26
2018-08-17T11:13:15.098Z,63.95
2018-08-17T11:14:15.075Z,64.14
2018-08-17T11:15:15.045Z,63.98
2018-08-17T11:16:15.028Z,63.98
2018-08-17T11:17:15.017Z,63.65
2018-08-17T11:18:14.993Z,63.91
2018-08-17T11:19:14.989Z,64.78
2018-08-17T11:20:14.964Z,64.92
2018-08-17T11:21:14.952Z,64.92
2018-08-17T11:22:14.932Z,64.92
2018-08-17T11:23:14.916Z,64.92
2018-08-17T11:24:14.901Z,65.37
2018-08-17T11:25:14.885Z,65.56
2018-08-17T11:26:14.870Z,64.82
2018-08-17T11:27:14.848Z,65.11
2018-08-17T11:28:14.836Z,64.92
2018-08-17T11:29:14.828Z,63.88
2018-08-17T11:30:14.801Z,63.23
2018-08-17T11:31:14.781Z,62.42
2018-08-17T11:32:14.772Z,63.04
2018-08-17T11:33:14.752Z,63.10
2018-08-17T11:34:15.553Z,63.10
2018-08-17T11:35:14.718Z,63.01
2018-08-17T11:36:14.707Z,63.26
2018-08-17T11:37:14.686Z,63.36
2018-08-17T11:38:14.672Z,64.14
2018-08-17T11:39:14.657Z,63.62
2018-08-17T11:40:14.638Z,63.95
2018-08-17T11:41:14.622Z,63.65
2018-08-17T11:42:14.605Z,62.81
2018-08-17T11:43:14.590Z,64.14
2018-08-17T11:44:14.568Z,63.39
2018-08-17T11:45:14.563Z,63.10
2018-08-17T11:46:14.539Z,62.71
2018-08-17T11:47:14.529Z,63.10
2018-08-17T11:48:14.508Z,61.97
2018-08-17T11:49:14.494Z,62.07
2018-08-17T11:50:14.473Z,61.61
2018-08-17T11:51:14.456Z,60.74
2018-08-17T11:52:14.444Z,61.02
2018-08-17T11:53:14.456Z,60.54
2018-08-17T11:54:14.412Z,61.02
2018-08-17T11:55:14.396Z,60.44
2018-08-17T11:56:14.376Z,60.41
2018-08-17T11:57:15.003Z,60.25
2018-08-17T11:58:14.350Z,61.00
2018-08-17T11:59:14.338Z,60.51
2018-08-17T12:00:14.313Z,61.19
2018-08-17T12:01:14.456Z,61.48
2018-08-17T12:02:14.280Z,61.48
2018-08-17T12:03:14.266Z,60.90
2018-08-17T12:04:14.250Z,61.19
2018-08-17T12:05:14.234Z,60.71
2018-08-17T12:06:14.213Z,60.31
2018-08-17T12:07:14.207Z,60.22
2018-08-17T12:08:14.240Z,61.55
2018-08-17T12:09:14.173Z,61.35
2018-08-17T12:10:14.154Z,61.74
2018-08-17T12:11:14.140Z,61.58
2018-08-17T12:12:14.122Z,60.61
2018-08-17T12:13:14.106Z,60.12
2018-08-17T12:14:14.090Z,60.41
2018-08-17T12:15:14.071Z,59.74
2018-08-17T12:16:14.063Z,59.95
2018-08-17T12:17:14.042Z,60.15
2018-08-17T12:18:14.033Z,60.15
2018-08-17T12:19:14.011Z,60.44
2018-08-17T12:20:13.995Z,60.54
2018-08-17T12:21:13.980Z,60.15
2018-08-17T12:22:13.964Z,59.47
2018-08-17T12:23:13.947Z,59.31
2018-08-17T12:24:13.959Z,59.31
2018-08-17T12:25:13.922Z,59.41
2018-08-17T12:26:13.898Z,59.50
2018-08-17T12:27:13.890Z,58.95
2018-08-17T12:28:13.859Z,58.56
2018-08-17T12:29:13.854Z,58.92
2018-08-17T12:30:13.837Z,59.11
2018-08-17T12:31:13.820Z,59.11
2018-08-17T12:32:13.866Z,59.31
2018-08-17T12:33:13.786Z,59.79
2018-08-17T12:34:13.773Z,59.33
2018-08-17T12:35:13.759Z,59.67
2018-08-17T12:36:13.747Z,59.92
2018-08-17T12:37:13.728Z,61.02
2018-08-17T12:38:13.715Z,61.00
2018-08-17T12:39:13.696Z,60.64
2018-08-17T12:40:13.724Z,61.19
2018-08-17T12:41:13.670Z,61.38
2018-08-17T12:42:13.647Z,60.41
2018-08-17T12:43:13.634Z,60.93
2018-08-17T12:44:13.619Z,61.09
2018-08-17T12:45:13.600Z,61.19
2018-08-17T12:46:13.579Z,60.51
2018-08-17T12:47:13.570Z,60.44
2018-08-17T12:48:13.554Z,60.64
2018-08-17T12:49:13.538Z,60.64
2018-08-17T12:50:13.527Z,61.41
2018-08-17T12:51:13.506Z,60.71
2018-08-17T12:52:13.548Z,61.48
2018-08-17T12:53:13.474Z,61.00
2018-08-17T12:54:13.476Z,61.68
2018-08-17T12:55:13.438Z,61.00
2018-08-17T12:56:13.428Z,61.58
2018-08-17T12:57:13.408Z,61.09
2018-08-17T12:58:13.405Z,61.02
2018-08-17T12:59:13.377Z,61.09
2018-08-17T13:00:13.359Z,61.48
2018-08-17T13:01:13.350Z,61.65
2018-08-17T13:02:13.327Z,61.58
2018-08-17T13:03:13.314Z,61.45
2018-08-17T13:04:13.293Z,61.55
2018-08-17T13:05:13.275Z,62.52
2018-08-17T13:06:13.263Z,61.77
2018-08-17T13:07:13.245Z,61.87
2018-08-17T13:08:13.223Z,61.12
2018-08-17T13:09:13.215Z,60.12
2018-08-17T13:10:13.196Z,60.22
2018-08-17T13:11:13.182Z,61.09
2018-08-17T13:12:13.161Z,60.31
2018-08-17T13:13:13.141Z,60.51
2018-08-17T13:14:13.151Z,60.02
2018-08-17T13:15:13.112Z,60.22
2018-08-17T13:16:13.098Z,60.12
2018-08-17T13:17:13.095Z,60.12
2018-08-17T13:18:13.062Z,59.92
2018-08-17T13:19:13.046Z,59.76
2018-08-17T13:20:13.029Z,59.74
2018-08-17T13:21:13.006Z,60.58
2018-08-17T13:22:13.001Z,60.58
2018-08-17T13:23:13.127Z,60.02
2018-08-17T13:24:12.977Z,59.92
2018-08-17T13:25:12.941Z,60.28
2018-08-17T13:26:12.937Z,60.19
2018-08-17T13:27:12.918Z,60.09
2018-08-17T13:28:12.895Z,60.12
2018-08-17T13:29:12.884Z,59.83
2018-08-17T13:30:12.864Z,59.64
2018-08-17T13:31:12.843Z,59.34
2018-08-17T13:32:12.828Z,59.74
2018-08-17T13:33:12.813Z,60.35
2018-08-17T13:34:12.795Z,61.04
2018-08-17T13:35:12.788Z,60.77
2018-08-17T13:36:12.849Z,60.48
2018-08-17T13:37:12.745Z,60.19
2018-08-17T13:38:12.728Z,60.38
2018-08-17T13:39:12.719Z,60.38
2018-08-17T13:40:12.694Z,60.38
2018-08-17T13:41:12.680Z,60.02
2018-08-17T13:42:12.719Z,59.74
2018-08-17T13:43:13.479Z,60.02
2018-08-17T13:44:12.626Z,59.74
2018-08-17T13:45:12.612Z,59.67
2018-08-17T13:46:12.596Z,59.83
2018-08-17T13:47:12.577Z,59.34
2018-08-17T13:48:12.560Z,59.90
2018-08-17T13:49:12.543Z,60.09
2018-08-17T13:50:12.530Z,60.19
2018-08-17T13:51:12.508Z,60.55
2018-08-17T13:52:12.499Z,61.04
2018-08-17T13:53:12.476Z,61.04
2018-08-17T13:54:12.467Z,60.28
2018-08-17T13:55:12.437Z,60.48
2018-08-17T13:56:12.433Z,59.92
2018-08-17T13:57:12.408Z,59.54
2018-08-17T13:58:12.390Z,59.54
2018-08-17T13:59:12.382Z,59.44
2018-08-17T14:00:12.365Z,58.83
2018-08-17T14:01:12.369Z,59.58
2018-08-17T14:02:12.342Z,59.28
2018-08-17T14:03:12.308Z,57.44
2018-08-17T14:04:12.282Z,57.54
2018-08-17T14:05:12.271Z,58.31
2018-08-17T14:06:12.257Z,58.12
2018-08-17T14:07:12.238Z,58.22
2018-08-17T14:08:12.267Z,58.03
2018-08-17T14:09:12.208Z,57.37
2018-08-17T14:10:12.304Z,56.70
2018-08-17T14:11:12.174Z,56.76
2018-08-17T14:12:12.148Z,56.47
2018-08-17T14:13:12.136Z,56.57
2018-08-17T14:14:12.116Z,56.96
2018-08-17T14:15:12.100Z,56.37
2018-08-17T14:16:12.098Z,56.09
2018-08-17T14:17:12.066Z,56.67
2018-08-17T14:18:12.049Z,56.57
2018-08-17T14:19:12.032Z,57.51
2018-08-17T14:20:12.012Z,57.44
2018-08-17T14:21:11.995Z,57.34
2018-08-17T14:22:12.031Z,57.73
2018-08-17T14:23:11.961Z,56.96
2018-08-17T14:24:11.944Z,56.76
2018-08-17T14:25:11.925Z,55.89
2018-08-17T14:26:11.907Z,55.82
2018-08-17T14:27:11.891Z,55.63
2018-08-17T14:28:11.873Z,55.63
2018-08-17T14:29:11.860Z,56.28
2018-08-17T14:30:11.836Z,56.18
2018-08-17T14:31:11.820Z,56.15
2018-08-17T14:32:11.801Z,55.79
2018-08-17T14:33:11.787Z,55.87
2018-08-17T14:34:11.815Z,55.87
2018-08-17T14:35:11.801Z,56.05
2018-08-17T14:36:11.732Z,55.87
2018-08-17T14:37:11.709Z,56.23
2018-08-17T14:38:11.718Z,56.87
2018-08-17T14:39:11.678Z,57.45
2018-08-17T14:40:11.692Z,57.26
2018-08-17T14:41:11.639Z,57.07
2018-08-17T14:42:11.634Z,57.26
2018-08-17T14:43:11.611Z,57.29
2018-08-17T14:44:11.602Z,57.29
2018-08-17T14:45:11.566Z,57.58
2018-08-17T14:46:11.562Z,57.00
2018-08-17T14:47:11.533Z,56.51
2018-08-17T14:48:11.520Z,57.58
2018-08-17T14:49:11.501Z,57.39
2018-08-17T14:50:11.483Z,57.00
2018-08-17T14:51:11.465Z,57.51
2018-08-17T14:52:11.445Z,57.32
2018-08-17T14:53:11.433Z,57.61
2018-08-17T14:54:11.412Z,58.29
2018-08-17T14:55:11.391Z,58.06
2018-08-17T14:56:11.374Z,58.00
2018-08-17T14:57:11.362Z,57.87
2018-08-17T14:58:11.343Z,58.65
2018-08-17T14:59:11.324Z,58.94
2018-08-17T15:00:11.310Z,59.23
2018-08-17T15:01:11.353Z,59.23
2018-08-17T15:02:11.265Z,58.74
2018-08-17T15:03:11.247Z,58.94
2018-08-17T15:04:11.227Z,59.30
2018-08-17T15:05:11.215Z,59.52
2018-08-17T15:06:12.078Z,59.81
2018-08-17T15:07:11.173Z,58.74
2018-08-17T15:08:11.155Z,58.84
2018-08-17T15:09:11.142Z,59.23
2018-08-17T15:10:11.122Z,59.23
2018-08-17T15:11:11.101Z,58.97
2018-08-17T15:12:11.081Z,58.77
2018-08-17T15:13:11.117Z,59.23
2018-08-17T15:14:11.053Z,59.33
2018-08-17T15:15:11.025Z,59.33
2018-08-17T15:16:11.010Z,59.42
2018-08-17T15:17:10.993Z,59.33
2018-08-17T15:18:12.650Z,58.74
2018-08-17T15:19:10.955Z,58.52
2018-08-17T15:20:10.936Z,58.94
2018-08-17T15:21:10.919Z,58.16
2018-08-17T15:22:10.899Z,58.42
2018-08-17T15:23:10.881Z,58.42
2018-08-17T15:24:10.891Z,58.81
2018-08-17T15:25:10.848Z,58.26
2018-08-17T15:26:10.829Z,58.42
2018-08-17T15:27:10.803Z,59.23
2018-08-17T15:28:10.791Z,58.45
2018-08-17T15:29:10.773Z,59.49
2018-08-17T15:30:10.758Z,59.52
2018-08-17T15:31:10.732Z,59.42
2018-08-17T15:32:10.718Z,58.91
2018-08-17T15:33:10.700Z,59.69
2018-08-17T15:34:10.679Z,59.97
2018-08-17T15:35:10.658Z,60.07
2018-08-17T15:36:10.639Z,60.27
2018-08-17T15:37:10.624Z,59.66
2018-08-17T15:38:10.605Z,60.82
2018-08-17T15:39:10.578Z,61.30
2018-08-17T15:40:10.566Z,61.46
2018-08-17T15:41:10.556Z,61.79
2018-08-17T15:42:11.063Z,61.30
2018-08-17T15:43:10.513Z,61.79
2018-08-17T15:44:10.489Z,61.95
2018-08-17T15:45:10.480Z,62.37
2018-08-17T15:46:10.489Z,62.53
2018-08-17T15:47:10.436Z,62.82
2018-08-17T15:48:10.416Z,62.34
2018-08-17T15:49:10.406Z,62.53
2018-08-17T15:50:10.380Z,62.34
2018-08-17T15:51:10.370Z,62.34
2018-08-17T15:52:10.390Z,62.82
2018-08-17T15:53:10.333Z,62.82
2018-08-17T15:54:10.298Z,62.43
2018-08-17T15:55:10.284Z,62.72
2018-08-17T15:56:10.263Z,62.34
2018-08-17T15:57:10.243Z,63.01
2018-08-17T15:58:10.241Z,63.85
2018-08-17T15:59:10.207Z,63.85
2018-08-17T16:00:10.196Z,64.14
2018-08-17T16:01:18.207Z,63.69
2018-08-17T16:03:03.307Z,64.34
2018-08-17T16:04:03.267Z,64.14
2018-08-17T16:05:56.907Z,64.92
2018-08-17T16:06:56.860Z,64.98
2018-08-17T16:08:50.184Z,65.08
2018-08-17T16:09:50.158Z,65.17
2018-08-17T16:11:43.812Z,64.89
2018-08-17T16:12:43.770Z,64.53
2018-08-17T16:14:37.083Z,64.43
2018-08-17T16:15:37.063Z,64.79
2018-08-17T16:17:30.202Z,64.79
2018-08-17T16:18:30.161Z,64.89
2018-08-17T16:20:23.804Z,65.08
2018-08-17T16:21:23.758Z,64.34
2018-08-17T16:23:16.611Z,64.14
2018-08-17T16:24:16.563Z,64.14
2018-08-17T16:26:09.694Z,64.04
2018-08-17T16:27:09.654Z,63.66
2018-08-17T16:29:03.322Z,63.66
2018-08-17T16:30:03.262Z,63.49
2018-08-17T16:31:56.438Z,63.27
2018-08-17T16:32:56.356Z,63.66
2018-08-17T16:34:49.999Z,63.34
2018-08-17T16:35:49.953Z,63.53
2018-08-17T16:37:43.591Z,64.01
2018-08-17T16:38:43.557Z,63.37
2018-08-17T16:40:36.899Z,62.92
2018-08-17T16:41:36.852Z,62.92
2018-08-17T16:43:29.683Z,61.49
2018-08-17T16:44:29.662Z,60.27
2018-08-17T16:46:23.325Z,58.16
2018-08-17T16:47:23.246Z,58.91
2018-08-17T16:49:16.095Z,60.72
2018-08-17T16:50:16.047Z,61.46
2018-08-17T16:52:08.916Z,62.43
2018-08-17T16:53:08.898Z,62.92
2018-08-17T16:55:01.990Z,62.72
2018-08-17T16:56:01.965Z,62.27
2018-08-17T16:57:56.608Z,61.79
2018-08-17T16:58:56.583Z,62.85
2018-08-17T17:00:49.922Z,63.40
2018-08-17T17:01:49.871Z,63.14
2018-08-17T17:03:43.299Z,63.85
2018-08-17T17:04:42.862Z,65.59
2018-08-17T17:06:36.408Z,67.66
2018-08-17T17:07:36.265Z,68.30
2018-08-17T17:09:29.903Z,70.97
2018-08-17T17:10:29.865Z,71.88
2018-08-17T17:12:23.468Z,72.32
2018-08-17T17:13:23.448Z,72.26
2018-08-17T17:15:16.791Z,72.22
2018-08-17T17:16:16.744Z,73.67
2018-08-17T17:18:09.571Z,73.77
2018-08-17T17:19:09.547Z,73.71
2018-08-17T17:21:03.198Z,72.55
2018-08-17T17:22:03.146Z,72.94
2018-08-17T17:23:56.296Z,73.32
2018-08-17T17:24:57.064Z,73.42
2018-08-17T17:26:49.146Z,74.00
2018-08-17T17:27:49.108Z,74.64
2018-08-17T17:29:41.891Z,75.22
2018-08-17T17:30:41.851Z,75.51
2018-08-17T17:31:41.827Z,75.31
2018-08-17T17:32:41.810Z,75.57
2018-08-17T17:33:41.787Z,75.31
2018-08-17T17:34:41.830Z,75.18
2018-08-17T17:35:41.746Z,76.05
2018-08-17T17:36:41.725Z,76.43
2018-08-17T17:37:41.713Z,76.68
2018-08-17T17:38:41.678Z,76.40
2018-08-17T17:39:41.680Z,77.46
2018-08-17T17:40:41.644Z,77.65
2018-08-17T17:41:41.622Z,77.71
2018-08-17T17:42:41.601Z,78.29
2018-08-17T17:43:41.580Z,78.19
2018-08-17T17:44:41.608Z,78.38
2018-08-17T17:45:41.532Z,79.44
2018-08-17T17:46:41.521Z,79.74
2018-08-17T17:47:41.494Z,79.93
2018-08-17T17:48:41.472Z,79.64
2018-08-17T17:49:41.446Z,79.64
2018-08-17T17:50:41.428Z,79.60
2018-08-17T17:51:41.408Z,79.74
2018-08-17T17:52:41.394Z,79.69
2018-08-17T17:53:41.370Z,79.60
2018-08-17T17:54:41.339Z,79.60
2018-08-17T17:55:41.318Z,79.50
2018-08-17T17:56:41.294Z,78.77
2018-08-17T17:57:41.274Z,78.67
2018-08-17T17:58:41.251Z,78.09
2018-08-17T17:59:41.227Z,78.29
2018-08-17T18:00:41.209Z,78.38
2018-08-17T18:01:41.189Z,78.77
2018-08-17T18:02:41.160Z,79.44
2018-08-17T18:03:41.141Z,79.64
2018-08-17T18:04:41.132Z,79.35
2018-08-17T18:05:41.095Z,79.60
2018-08-17T18:06:41.072Z,79.64
2018-08-17T18:07:41.056Z,79.50
2018-08-17T18:08:41.030Z,79.64
2018-08-17T18:09:41.004Z,80.66
2018-08-17T18:10:40.983Z,81.52
2018-08-17T18:11:40.963Z,82.29
2018-08-17T18:12:40.944Z,82.45
2018-08-17T18:13:40.917Z,82.54
2018-08-17T18:14:40.905Z,83.31
2018-08-17T18:15:40.871Z,83.89
2018-08-17T18:16:40.850Z,83.89
2018-08-17T18:17:40.825Z,84.18
2018-08-17T18:18:40.803Z,83.70
2018-08-17T18:19:40.784Z,84.66
2018-08-17T18:20:40.759Z,84.38
2018-08-17T18:21:40.748Z,84.86
2018-08-17T18:22:40.714Z,84.56
2018-08-17T18:23:40.694Z,85.14
2018-08-17T18:24:40.665Z,85.58
2018-08-17T18:25:40.645Z,85.78
2018-08-17T18:26:40.632Z,86.07
2018-08-17T18:27:40.596Z,86.55
2018-08-17T18:28:40.577Z,86.35
2018-08-17T18:29:40.554Z,86.16
2018-08-17T18:30:40.584Z,86.65
2018-08-17T18:31:40.515Z,86.83
2018-08-17T18:32:40.485Z,86.93
2018-08-17T18:33:40.469Z,87.12
2018-08-17T18:34:40.437Z,87.60
2018-08-17T18:35:40.415Z,87.90
2018-08-17T18:36:40.395Z,87.76
2018-08-17T18:37:40.366Z,88.62
2018-08-17T18:38:40.341Z,88.62
2018-08-17T18:39:40.325Z,89.01
2018-08-17T18:40:40.306Z,88.91
2018-08-17T18:41:40.274Z,89.49
2018-08-17T18:42:40.250Z,89.29
2018-08-17T18:43:40.228Z,89.29
2018-08-17T18:44:40.203Z,89.97
2018-08-17T18:45:40.179Z,89.78
2018-08-17T18:46:40.184Z,90.64
2018-08-17T18:47:40.127Z,90.73
2018-08-17T18:48:40.110Z,90.55
2018-08-17T18:49:40.085Z,90.83
2018-08-17T18:50:40.063Z,91.03
2018-08-17T18:51:40.035Z,91.31
2018-08-17T18:52:40.068Z,91.31
2018-08-17T18:53:39.991Z,91.70
2018-08-17T18:54:39.961Z,92.18
2018-08-17T18:55:39.945Z,91.89
2018-08-17T18:56:39.921Z,91.22
2018-08-17T18:57:39.891Z,91.89
2018-08-17T18:58:39.872Z,91.51
2018-08-17T18:59:39.849Z,91.99
2018-08-17T19:00:39.832Z,92.28
2018-08-17T19:01:39.807Z,92.38
2018-08-17T19:02:39.776Z,92.28
2018-08-17T19:03:39.754Z,92.38
2018-08-17T19:04:39.734Z,92.38
2018-08-17T19:05:39.704Z,92.43
2018-08-17T19:06:39.689Z,92.81
2018-08-17T19:07:39.660Z,92.43
2018-08-17T19:08:39.634Z,92.81
2018-08-17T19:09:39.607Z,92.47
2018-08-17T19:10:39.584Z,92.85
2018-08-17T19:11:39.565Z,93.10
2018-08-17T19:12:39.537Z,93.33
2018-08-17T19:13:39.516Z,93.19
2018-08-17T19:14:39.504Z,92.91
2018-08-17T19:15:39.535Z,93.00
2018-08-17T19:16:39.442Z,93.19
2018-08-17T19:17:39.419Z,93.19
2018-08-17T19:18:39.392Z,93.38
2018-08-17T19:19:39.373Z,93.68
2018-08-17T19:20:39.342Z,93.29
2018-08-17T19:21:39.332Z,93.19
2018-08-17T19:22:39.302Z,93.29
2018-08-17T19:23:39.274Z,93.19
2018-08-17T19:24:39.256Z,93.68
2018-08-17T19:25:39.225Z,93.68
2018-08-17T19:26:39.200Z,93.48
2018-08-17T19:27:39.179Z,93.48
2018-08-17T19:28:39.153Z,93.19
2018-08-17T19:29:39.129Z,93.00
2018-08-17T19:30:39.101Z,93.00
2018-08-17T19:31:39.080Z,93.10
2018-08-17T19:32:39.056Z,92.52
2018-08-17T19:33:39.029Z,92.23
2018-08-17T19:34:39.021Z,92.04
2018-08-17T19:35:38.984Z,91.94
2018-08-17T19:36:38.965Z,92.23
2018-08-17T19:37:38.934Z,92.52
2018-08-17T19:38:38.911Z,92.47
2018-08-17T19:39:38.887Z,92.43
2018-08-17T19:40:38.864Z,92.96
2018-08-17T19:41:38.837Z,93.15
2018-08-17T19:42:38.816Z,93.05
2018-08-17T19:43:38.788Z,92.96
2018-08-17T19:44:38.766Z,93.15
2018-08-17T19:45:38.746Z,92.67
2018-08-17T19:46:38.711Z,92.38
2018-08-17T19:47:38.717Z,92.76
2018-08-17T19:48:38.673Z,92.76
2018-08-17T19:49:38.653Z,92.76
2018-08-17T19:50:38.625Z,92.19
2018-08-17T19:51:38.613Z,92.38
2018-08-17T19:52:38.573Z,92.76
2018-08-17T19:53:38.547Z,92.76
2018-08-17T19:54:38.524Z,92.38
2018-08-17T19:55:38.504Z,92.47
2018-08-17T19:56:38.470Z,92.19
2018-08-17T19:57:38.449Z,92.38
2018-08-17T19:58:38.426Z,92.09
2018-08-17T19:59:38.403Z,92.29
2018-08-17T20:00:38.388Z,92.47
2018-08-17T20:01:38.353Z,92.57
2018-08-17T20:02:38.336Z,92.76
2018-08-17T20:03:38.306Z,92.67
2018-08-17T20:04:38.280Z,92.09
2018-08-17T20:05:38.255Z,92.38
2018-08-17T20:06:38.231Z,92.38
2018-08-17T20:07:38.250Z,92.09
2018-08-17T20:08:38.184Z,92.29
2018-08-17T20:09:38.153Z,92.47
2018-08-17T20:10:38.135Z,92.76
2018-08-17T20:11:38.108Z,93.05
2018-08-17T20:12:38.080Z,92.47
2018-08-17T20:13:38.062Z,92.67
2018-08-17T20:14:38.036Z,92.57
2018-08-17T20:15:38.023Z,92.72
2018-08-17T20:16:37.991Z,92.33
2018-08-17T20:17:37.961Z,92.52
2018-08-17T20:18:37.937Z,92.91
2018-08-17T20:19:37.914Z,92.91
2018-08-17T20:20:37.889Z,93.10
2018-08-17T20:21:37.865Z,92.81
2018-08-17T20:22:37.837Z,93.01
2018-08-17T20:23:37.815Z,92.91
2018-08-17T20:24:37.793Z,93.29
2018-08-17T20:25:37.776Z,93.49
2018-08-17T20:26:38.092Z,93.68
2018-08-17T20:27:37.716Z,93.96
2018-08-17T20:28:37.693Z,93.77
2018-08-17T20:29:37.666Z,93.58
2018-08-17T20:30:37.643Z,94.83
2018-08-17T20:31:37.618Z,94.64
2018-08-17T20:32:37.595Z,94.26
2018-08-17T20:33:37.567Z,94.73
2018-08-17T20:34:37.543Z,94.69
2018-08-17T20:35:37.520Z,94.26
2018-08-17T20:36:37.514Z,94.35
2018-08-17T20:37:37.474Z,94.83
2018-08-17T20:38:37.472Z,94.45
2018-08-17T20:39:37.419Z,94.16
2018-08-17T20:40:37.396Z,94.26
2018-08-17T20:41:37.364Z,94.26
2018-08-17T20:42:37.361Z,94.40
2018-08-17T20:43:37.319Z,94.78
2018-08-17T20:44:37.296Z,94.45
2018-08-17T20:45:37.270Z,94.35
2018-08-17T20:46:37.250Z,95.17
2018-08-17T20:47:37.224Z,94.98
2018-08-17T20:48:37.194Z,94.98
2018-08-17T20:49:37.172Z,94.88
2018-08-17T20:50:37.147Z,94.78
2018-08-17T20:51:37.124Z,94.98
2018-08-17T20:52:37.098Z,95.26
2018-08-17T20:53:37.072Z,95.26
2018-08-17T20:54:37.045Z,95.17
2018-08-17T20:55:37.027Z,95.55
2018-08-17T20:56:36.998Z,95.07
2018-08-17T20:57:36.966Z,95.07
2018-08-17T20:58:36.945Z,94.88
2018-08-17T20:59:36.923Z,95.45
2018-08-17T21:00:36.972Z,95.36
2018-08-17T21:01:36.873Z,95.55
2018-08-17T21:02:36.852Z,95.36
2018-08-17T21:03:36.837Z,95.17
2018-08-17T21:04:36.796Z,95.26
2018-08-17T21:05:36.772Z,95.07
2018-08-17T21:06:36.750Z,95.07
2018-08-17T21:07:36.734Z,94.98
2018-08-17T21:08:36.703Z,95.26
2018-08-17T21:09:36.678Z,95.17
2018-08-17T21:10:36.657Z,95.36
2018-08-17T21:11:36.741Z,95.36
2018-08-17T21:12:36.599Z,95.55
2018-08-17T21:13:36.572Z,95.55
2018-08-17T21:14:36.548Z,95.75
2018-08-17T21:15:36.521Z,96.13
2018-08-17T21:16:36.498Z,95.75
2018-08-17T21:17:36.476Z,96.66
2018-08-17T21:18:36.449Z,96.22
2018-08-17T21:19:36.430Z,96.08
2018-08-17T21:20:36.409Z,95.89
2018-08-17T21:21:36.409Z,96.75
2018-08-17T21:22:36.350Z,96.80
2018-08-17T21:23:36.322Z,96.56
2018-08-17T21:24:36.300Z,96.66